Time;durP1;ratioP1;P1;durP2;ratioP2;P2;SDS_P1;SDS_P2;PMS_P1;PMS_P2;Temp;Humidity;BMP_temperature;BMP_pressure;BME280_temperature;BME280_humidity;BME280_pressure;Samples;Min_cycle;Max_cycle;Signal;HPM_P1;HPM_P2
2021/11/24 00:00:49;;;;;;;2.65;1.70;;;7.80;59.40;;;;;;6245714;23;20004;-82
2021/11/24 00:03:15;;;;;;;2.38;2.17;;;7.90;57.60;;;;;;6245024;23;20021;-83
2021/11/24 00:05:41;;;;;;;2.80;2.00;;;7.90;58.50;;;;;;6245645;23;20063;-85
2021/11/24 00:08:07;;;;;;;8.38;4.15;;;8.00;57.80;;;;;;6245373;23;19996;-84
2021/11/24 00:10:35;;;;;;;3.38;2.45;;;8.00;58.80;;;;;;6217796;23;20079;-83
2021/11/24 00:13:03;;;;;;;4.10;2.88;;;7.80;60.00;;;;;;6244903;23;20000;-83
2021/11/24 00:15:29;;;;;;;50.60;24.63;;;7.80;61.20;;;;;;6222845;23;20031;-83
2021/11/24 00:17:55;;;;;;;4.53;2.97;;;7.80;57.20;;;;;;6244626;22;20332;-84
2021/11/24 00:20:21;;;;;;;3.35;2.80;;;7.70;63.20;;;;;;6245206;22;20071;-83
2021/11/24 00:22:47;;;;;;;4.28;2.80;;;7.60;62.30;;;;;;6245372;22;20027;-83
2021/11/24 00:25:12;;;;;;;5.28;3.10;;;7.60;62.60;;;;;;6268861;22;20019;-83
2021/11/24 00:27:38;;;;;;;4.57;3.00;;;7.50;63.60;;;;;;6245156;22;20039;-85
2021/11/24 00:30:06;;;;;;;4.82;3.20;;;7.50;63.20;;;;;;6245959;22;19996;-85
2021/11/24 00:32:33;;;;;;;26.52;13.95;;;7.50;64.70;;;;;;6245438;22;20000;-85
2021/11/24 00:35:00;;;;;;;4.43;2.97;;;7.50;62.00;;;;;;6245167;22;20022;-86
2021/11/24 00:37:28;;;;;;;3.83;2.92;;;7.50;64.10;;;;;;6244290;22;20000;-83
2021/11/24 00:39:54;;;;;;;5.50;2.95;;;7.40;65.70;;;;;;6244963;22;20020;-84
2021/11/24 00:42:20;;;;;;;3.33;2.80;;;7.40;63.20;;;;;;6244522;22;20454;-84
2021/11/24 00:44:46;;;;;;;3.25;2.50;;;7.40;63.30;;;;;;6244766;22;20035;-83
2021/11/24 00:47:11;;;;;;;3.88;2.55;;;7.40;62.40;;;;;;6244497;23;20146;-84
2021/11/24 00:49:39;;;;;;;2.95;2.05;;;7.50;61.80;;;;;;6243444;23;20004;-84
2021/11/24 00:52:06;;;;;;;3.65;2.22;;;7.60;59.70;;;;;;6242821;23;20339;-84
2021/11/24 00:54:32;;;;;;;2.03;1.67;;;7.50;59.40;;;;;;6244956;22;20031;-84
2021/11/24 00:56:58;;;;;;;9.43;5.03;;;7.40;59.80;;;;;;6244014;22;20019;-83
2021/11/24 00:59:24;;;;;;;2.72;2.10;;;7.40;59.00;;;;;;6244738;22;20340;-84
2021/11/24 01:01:50;;;;;;;4.47;2.97;;;7.40;56.80;;;;;;6243990;22;20000;-83
2021/11/24 01:04:15;;;;;;;10.65;5.38;;;7.50;57.70;;;;;;6244410;22;20055;-83
2021/11/24 01:06:41;;;;;;;4.45;3.25;;;7.50;58.10;;;;;;6244144;22;20379;-83
2021/11/24 01:09:07;;;;;;;1.42;1.33;;;7.50;58.30;;;;;;6244365;22;20050;-84
2021/11/24 01:11:33;;;;;;;2.80;2.08;;;7.40;58.00;;;;;;6242537;23;20000;-83
2021/11/24 01:13:59;;;;;;;2.38;1.90;;;7.50;57.90;;;;;;6242304;22;20018;-84
2021/11/24 01:16:25;;;;;;;3.88;1.48;;;7.50;58.40;;;;;;6242060;22;20095;-84
2021/11/24 01:18:51;;;;;;;3.58;2.72;;;7.40;57.50;;;;;;6243971;23;20028;-85
2021/11/24 01:21:17;;;;;;;2.72;1.50;;;7.40;56.80;;;;;;6216636;23;20008;-84
2021/11/24 01:23:43;;;;;;;3.80;1.85;;;7.40;56.90;;;;;;6216678;23;20498;-83
2021/11/24 01:26:09;;;;;;;26.30;10.60;;;7.30;57.80;;;;;;6243685;23;20377;-85
2021/11/24 01:28:35;;;;;;;17.40;8.35;;;7.30;59.10;;;;;;6243887;23;20028;-84
2021/11/24 01:31:01;;;;;;;17.35;7.70;;;7.30;59.60;;;;;;6243922;23;20003;-85
2021/11/24 01:33:26;;;;;;;20.63;9.07;;;7.30;59.60;;;;;;6243772;23;20024;-86
2021/11/24 01:35:52;;;;;;;7.72;3.63;;;7.30;57.10;;;;;;6244683;23;20062;-85
2021/11/24 01:38:18;;;;;;;2.75;1.85;;;7.30;57.20;;;;;;6244578;23;19992;-85
2021/11/24 01:40:44;;;;;;;94.05;34.63;;;7.30;58.20;;;;;;6244482;23;20444;-84
2021/11/24 01:43:09;;;;;;;3.85;3.15;;;7.20;57.80;;;;;;6244262;23;20419;-83
2021/11/24 01:45:37;;;;;;;7.65;4.53;;;7.20;58.00;;;;;;6244061;23;20038;-84
2021/11/24 01:48:03;;;;;;;19.08;6.72;;;7.20;56.90;;;;;;6243694;23;20011;-83
2021/11/24 01:50:29;;;;;;;12.60;5.60;;;7.20;58.30;;;;;;6244167;23;20015;-84
2021/11/24 01:52:55;;;;;;;4.90;2.92;;;7.10;57.80;;;;;;6217304;23;20375;-84
2021/11/24 01:55:21;;;;;;;1.58;1.48;;;7.10;57.00;;;;;;6217623;23;20009;-84
2021/11/24 01:57:50;;;;;;;5.03;1.90;;;7.20;54.60;;;;;;6243971;23;20004;-83
2021/11/24 02:00:23;;;;;;;2.30;2.10;;;7.30;56.60;;;;;;6216781;23;20329;-84
2021/11/24 02:02:49;;;;;;;5.53;2.15;;;7.30;56.80;;;;;;6216548;23;20004;-84
2021/11/24 02:05:14;;;;;;;2.17;1.70;;;7.10;57.30;;;;;;6243962;23;20035;-84
2021/11/24 02:07:41;;;;;;;3.00;2.08;;;7.10;55.40;;;;;;6243576;23;20424;-81
2021/11/24 02:10:07;;;;;;;2.38;1.95;;;7.30;56.10;;;;;;6217173;23;20000;-84
2021/11/24 02:12:32;;;;;;;2.67;2.03;;;7.30;57.60;;;;;;6243164;23;20023;-84
2021/11/24 02:14:58;;;;;;;3.45;1.90;;;7.10;58.10;;;;;;6217154;23;20030;-85
2021/11/24 02:17:24;;;;;;;1.80;1.50;;;7.00;57.50;;;;;;6243172;23;19996;-84
2021/11/24 02:19:50;;;;;;;1.70;1.58;;;7.10;56.70;;;;;;6244112;23;20000;-86
2021/11/24 02:22:16;;;;;;;3.85;2.22;;;7.20;56.10;;;;;;6243320;23;20382;-85
2021/11/24 02:24:44;;;;;;;2.20;1.90;;;7.30;56.80;;;;;;6244021;23;20005;-85
2021/11/24 02:27:11;;;;;;;3.58;1.95;;;7.30;59.20;;;;;;6244848;23;20079;-84
2021/11/24 02:29:38;;;;;;;2.38;2.17;;;7.30;58.80;;;;;;6219265;23;20008;-84
2021/11/24 02:32:05;;;;;;;2.17;1.80;;;7.20;59.20;;;;;;6245242;23;19996;-84
2021/11/24 02:34:32;;;;;;;1.92;1.30;;;7.10;58.00;;;;;;6219102;23;20008;-84
2021/11/24 02:36:58;;;;;;;2.47;1.83;;;7.10;57.40;;;;;;6245177;23;19996;-84
2021/11/24 02:39:24;;;;;;;2.30;1.77;;;7.10;60.50;;;;;;6245982;23;20027;-85
2021/11/24 02:41:50;;;;;;;1.92;1.80;;;7.00;57.90;;;;;;6245135;23;20079;-84
2021/11/24 02:44:23;;;;;;;2.97;2.53;;;6.90;57.80;;;;;;6218664;23;20513;-84
2021/11/24 02:46:51;;;;;;;2.80;2.22;;;6.90;59.40;;;;;;6218198;23;20000;-83
2021/11/24 02:49:16;;;;;;;3.03;2.20;;;6.80;60.40;;;;;;6245653;23;20035;-84
2021/11/24 02:51:43;;;;;;;3.65;2.60;;;6.80;60.40;;;;;;6245242;23;20000;-83
2021/11/24 02:54:09;;;;;;;2.60;2.38;;;6.90;59.40;;;;;;6245534;23;20022;-85
2021/11/24 02:56:36;;;;;;;2.63;2.17;;;6.90;60.10;;;;;;6244664;23;19996;-83
2021/11/24 02:59:03;;;;;;;2.53;2.33;;;6.90;61.10;;;;;;6245397;23;20503;-83
2021/11/24 03:01:29;;;;;;;3.30;2.10;;;6.90;60.30;;;;;;6244783;23;20384;-83
2021/11/24 03:03:55;;;;;;;4.10;2.10;;;6.90;61.10;;;;;;6218898;23;20012;-83
2021/11/24 03:06:20;;;;;;;2.55;2.30;;;6.90;61.50;;;;;;6245484;23;20071;-81
2021/11/24 03:08:46;;;;;;;3.33;2.38;;;6.90;61.10;;;;;;6245233;23;20001;-83
2021/11/24 03:11:12;;;;;;;2.35;2.10;;;6.90;63.00;;;;;;6218701;23;20012;-82
2021/11/24 03:13:37;;;;;;;3.45;2.20;;;6.90;60.70;;;;;;6245131;23;20485;-82
2021/11/24 03:16:04;;;;;;;2.83;2.40;;;6.90;61.90;;;;;;6244959;23;20030;-82
2021/11/24 03:18:29;;;;;;;2.97;2.45;;;6.90;62.00;;;;;;6245527;23;20016;-82
2021/11/24 03:20:55;;;;;;;3.38;2.55;;;6.80;63.10;;;;;;6245385;23;20000;-82
2021/11/24 03:23:21;;;;;;;3.28;2.65;;;6.80;63.40;;;;;;6218282;23;20054;-82
2021/11/24 03:25:47;;;;;;;4.30;2.75;;;6.80;63.70;;;;;;6245423;23;20031;-82
2021/11/24 03:28:12;;;;;;;3.67;2.63;;;6.80;63.70;;;;;;6218670;23;20083;-82
2021/11/24 03:30:39;;;;;;;4.35;2.70;;;6.70;63.50;;;;;;6245568;23;20004;-83
2021/11/24 03:33:06;;;;;;;3.17;2.50;;;6.80;63.60;;;;;;6218233;23;20027;-82
2021/11/24 03:35:34;;;;;;;3.03;2.65;;;6.70;64.40;;;;;;6245370;23;20520;-81
2021/11/24 03:38:01;;;;;;;3.90;3.03;;;6.70;65.10;;;;;;6217805;23;20050;-80
2021/11/24 03:40:30;;;;;;;4.30;3.13;;;6.80;65.20;;;;;;6218150;23;20015;-81
2021/11/24 03:42:57;;;;;;;2.95;2.50;;;6.70;65.00;;;;;;6244159;23;20008;-83
2021/11/24 03:45:27;;;;;;;3.00;2.53;;;6.70;65.30;;;;;;6244921;23;20078;-83
2021/11/24 03:47:53;;;;;;;4.00;2.65;;;6.60;65.80;;;;;;6244473;23;19996;-81
2021/11/24 03:50:19;;;;;;;3.83;2.88;;;6.60;65.30;;;;;;6218079;23;20074;-80
2021/11/24 03:52:46;;;;;;;5.53;3.20;;;6.60;65.80;;;;;;6217987;23;20330;-81
2021/11/24 03:55:13;;;;;;;2.92;2.60;;;6.50;65.30;;;;;;6244790;23;20087;-81
2021/11/24 03:57:39;;;;;;;2.97;2.65;;;6.50;65.90;;;;;;6244521;23;20553;-80
2021/11/24 04:00:09;;;;;;;3.42;2.80;;;6.50;66.90;;;;;;6244672;23;20007;-81
2021/11/24 04:02:35;;;;;;;3.60;2.72;;;6.40;66.20;;;;;;6244481;23;19996;-81
2021/11/24 04:05:01;;;;;;;5.70;2.70;;;6.50;66.30;;;;;;6245081;23;20012;-83
2021/11/24 04:07:26;;;;;;;2.92;2.50;;;6.40;65.90;;;;;;6244821;23;20552;-85
2021/11/24 04:09:52;;;;;;;3.00;2.70;;;6.40;65.00;;;;;;6218365;23;20542;-84
2021/11/24 04:12:18;;;;;;;3.08;2.58;;;6.40;64.40;;;;;;6243977;23;20059;-83
2021/11/24 04:14:43;;;;;;;2.97;2.35;;;6.30;65.00;;;;;;6218289;23;20008;-84
2021/11/24 04:17:09;;;;;;;2.78;2.58;;;6.40;65.40;;;;;;6244503;23;20436;-84
2021/11/24 04:19:35;;;;;;;3.00;2.55;;;6.30;64.10;;;;;;6244963;23;20028;-84
2021/11/24 04:22:01;;;;;;;2.50;2.30;;;6.30;64.50;;;;;;6243998;23;19996;-84
2021/11/24 04:24:27;;;;;;;3.55;2.25;;;6.30;65.00;;;;;;6217528;23;20023;-84
2021/11/24 04:26:54;;;;;;;4.78;2.72;;;6.30;66.10;;;;;;6217095;23;20483;-84
2021/11/24 04:29:19;;;;;;;5.00;2.42;;;6.20;63.40;;;;;;6218075;23;20058;-81
2021/11/24 04:31:45;;;;;;;2.80;2.40;;;6.30;64.00;;;;;;6217023;23;20004;-84
2021/11/24 04:34:11;;;;;;;2.28;2.08;;;6.30;63.40;;;;;;6244813;23;20000;-82
2021/11/24 04:36:37;;;;;;;3.33;2.20;;;6.40;63.50;;;;;;6244402;23;19996;-85
2021/11/24 04:39:03;;;;;;;3.50;2.60;;;6.30;65.20;;;;;;6244560;23;20001;-82
2021/11/24 04:41:29;;;;;;;2.75;2.17;;;6.40;62.60;;;;;;6217008;23;20062;-83
2021/11/24 04:43:55;;;;;;;2.17;1.98;;;6.40;62.50;;;;;;6244314;23;20007;-82
2021/11/24 04:46:21;;;;;;;2.65;2.08;;;6.40;62.30;;;;;;6244165;23;20039;-84
2021/11/24 04:48:47;;;;;;;3.33;2.20;;;6.30;63.20;;;;;;6243731;23;19996;-84
2021/11/24 04:51:12;;;;;;;3.90;2.55;;;6.30;61.20;;;;;;6217248;23;20011;-82
2021/11/24 04:53:38;;;;;;;2.83;2.25;;;6.40;60.80;;;;;;6244232;23;20436;-82
2021/11/24 04:56:05;;;;;;;4.13;2.40;;;6.40;60.90;;;;;;6243607;23;19996;-81
2021/11/24 04:58:30;;;;;;;4.50;2.00;;;6.40;60.50;;;;;;6216829;23;20444;-82
2021/11/24 05:00:57;;;;;;;2.15;1.95;;;6.60;60.40;;;;;;6244132;23;19996;-83
2021/11/24 05:03:23;;;;;;;2.25;2.00;;;6.60;61.10;;;;;;6217224;23;20008;-84
2021/11/24 05:05:49;;;;;;;2.50;2.05;;;6.50;59.90;;;;;;6244445;23;20010;-84
2021/11/24 05:08:15;;;;;;;2.38;2.15;;;6.40;60.30;;;;;;6244209;23;20102;-85
2021/11/24 05:10:40;;;;;;;2.63;1.95;;;6.20;60.50;;;;;;6244408;23;20431;-84
2021/11/24 05:13:07;;;;;;;3.20;1.95;;;6.20;59.90;;;;;;6243846;23;20020;-84
2021/11/24 05:15:36;;;;;;;1.90;1.80;;;6.20;61.20;;;;;;6219049;23;20023;-85
2021/11/24 05:18:04;;;;;;;2.85;1.80;;;6.30;59.90;;;;;;6244027;22;20734;-82
2021/11/24 05:20:31;;;;;;;2.67;2.05;;;6.40;60.20;;;;;;6244837;22;20075;-84
2021/11/24 05:23:00;;;;;;;2.35;1.92;;;6.50;60.40;;;;;;6268127;22;20004;-83
2021/11/24 05:25:27;;;;;;;2.17;1.90;;;6.50;60.00;;;;;;6243120;22;20069;-83
2021/11/24 05:27:53;;;;;;;3.75;2.13;;;6.40;59.70;;;;;;6242170;22;20001;-84
2021/11/24 05:30:20;;;;;;;2.60;2.33;;;6.40;59.90;;;;;;6243464;22;20011;-83
2021/11/24 05:32:45;;;;;;;2.80;2.45;;;6.30;60.30;;;;;;6242842;23;20001;-83
2021/11/24 05:35:11;;;;;;;2.47;2.25;;;6.30;61.80;;;;;;6243676;22;20003;-83
2021/11/24 05:37:37;;;;;;;3.00;2.30;;;6.30;62.30;;;;;;6241930;23;20351;-83
2021/11/24 05:40:04;;;;;;;3.20;2.22;;;6.40;60.80;;;;;;6242410;22;20423;-83
2021/11/24 05:42:30;;;;;;;2.97;2.05;;;6.40;62.20;;;;;;6240440;23;20012;-84
2021/11/24 05:45:14;;;;;;;2.53;2.22;;;6.40;61.00;;;;;;6243765;22;20095;-84
2021/11/24 05:50:35;;;;;;;2.50;2.10;;;6.30;62.00;;;;;;6224473;22;20012;-84
2021/11/24 05:53:01;;;;;;;3.15;2.30;;;6.30;62.60;;;;;;6241751;23;20047;-83
2021/11/24 05:55:28;;;;;;;2.38;2.13;;;6.40;61.60;;;;;;6242690;23;20000;-83
2021/11/24 05:57:54;;;;;;;3.38;2.60;;;6.30;60.30;;;;;;6243912;22;20545;-83
2021/11/24 06:00:19;;;;;;;3.17;2.28;;;6.30;61.00;;;;;;6244007;22;19992;-83
2021/11/24 06:02:45;;;;;;;3.10;2.20;;;6.30;61.00;;;;;;6243745;22;20065;-84
2021/11/24 06:05:11;;;;;;;2.55;2.20;;;6.20;61.20;;;;;;6243714;22;20546;-83
2021/11/24 06:07:38;;;;;;;2.40;2.20;;;6.20;60.70;;;;;;6244270;22;20000;-82
2021/11/24 06:10:06;;;;;;;2.15;1.90;;;6.20;61.00;;;;;;6245247;23;20007;-81
2021/11/24 06:12:31;;;;;;;2.50;2.25;;;6.20;61.00;;;;;;6242643;22;20337;-80
2021/11/24 06:14:57;;;;;;;3.05;2.00;;;6.20;61.20;;;;;;6243278;22;20004;-84
2021/11/24 06:17:23;;;;;;;2.38;2.17;;;6.20;60.20;;;;;;6243231;23;20086;-84
2021/11/24 06:19:49;;;;;;;2.75;2.22;;;6.20;59.90;;;;;;6244261;23;19997;-89
2021/11/24 06:22:15;;;;;;;2.35;2.08;;;6.30;60.40;;;;;;6228235;23;20015;-87
2021/11/24 06:24:40;;;;;;;2.30;2.10;;;6.20;61.60;;;;;;6220610;23;20009;-83
2021/11/24 06:27:06;;;;;;;2.28;1.90;;;6.20;61.30;;;;;;6219685;23;20327;-79
2021/11/24 06:29:32;;;;;;;2.58;2.38;;;6.10;60.50;;;;;;6218427;23;20012;-86
2021/11/24 06:31:58;;;;;;;3.13;2.78;;;6.10;61.80;;;;;;6216649;23;20000;-89
2021/11/24 06:34:23;;;;;;;3.53;2.60;;;6.10;63.20;;;;;;6241240;23;20420;-81
2021/11/24 06:36:49;;;;;;;11.73;2.50;;;6.00;63.30;;;;;;6213783;23;20004;-82
2021/11/24 06:39:15;;;;;;;3.78;2.63;;;6.10;63.90;;;;;;6215243;23;20339;-82
2021/11/24 06:41:41;;;;;;;4.63;2.28;;;6.10;62.90;;;;;;6241941;23;20427;-82
2021/11/24 06:44:06;;;;;;;2.92;2.63;;;6.10;63.40;;;;;;6242286;23;20004;-83
2021/11/24 06:46:33;;;;;;;7.90;2.80;;;6.10;63.40;;;;;;6215503;23;20058;-81
2021/11/24 06:48:59;;;;;;;3.33;2.20;;;6.10;64.10;;;;;;6243583;23;20031;-82
2021/11/24 06:51:24;;;;;;;4.07;2.80;;;6.20;65.10;;;;;;6243187;23;20008;-82
2021/11/24 06:53:51;;;;;;;3.38;2.50;;;6.30;64.00;;;;;;6242907;23;20067;-82
2021/11/24 06:56:17;;;;;;;3.63;2.63;;;6.40;64.70;;;;;;6243274;23;20464;-81
2021/11/24 06:58:42;;;;;;;3.08;2.78;;;6.50;64.10;;;;;;6243334;23;20027;-82
2021/11/24 07:01:08;;;;;;;2.95;2.47;;;6.60;65.30;;;;;;6243233;23;19992;-80
2021/11/24 07:03:34;;;;;;;3.95;2.50;;;6.60;65.30;;;;;;6216149;23;20018;-85
2021/11/24 07:05:59;;;;;;;6.05;2.85;;;6.70;65.00;;;;;;6243247;23;20007;-90
2021/11/24 07:08:25;;;;;;;4.22;3.20;;;6.80;65.10;;;;;;6216479;23;19997;-81
2021/11/24 07:10:51;;;;;;;5.10;2.75;;;6.80;64.90;;;;;;6241818;23;20012;-81
2021/11/24 07:13:17;;;;;;;5.20;2.83;;;6.80;65.00;;;;;;6241955;23;20028;-83
2021/11/24 07:15:43;;;;;;;3.00;2.70;;;6.80;64.60;;;;;;6219699;23;20340;-83
2021/11/24 07:18:09;;;;;;;4.00;2.95;;;6.90;65.10;;;;;;6242315;22;20022;-85
2021/11/24 07:20:34;;;;;;;7.88;2.88;;;6.90;65.40;;;;;;6242682;23;20331;-86
2021/11/24 07:23:00;;;;;;;3.25;2.53;;;6.90;68.00;;;;;;6244361;22;20008;-87
2021/11/24 07:25:28;;;;;;;4.45;2.78;;;7.00;66.50;;;;;;6244437;22;20008;-85
2021/11/24 07:27:54;;;;;;;5.65;2.85;;;7.10;66.30;;;;;;6243896;22;19992;-87
2021/11/24 07:30:21;;;;;;;4.70;2.60;;;7.10;66.10;;;;;;6245202;22;20006;-86
2021/11/24 07:32:47;;;;;;;3.25;2.70;;;7.20;65.90;;;;;;6241504;23;20062;-86
2021/11/24 07:35:13;;;;;;;4.45;2.58;;;7.20;66.20;;;;;;6243795;22;20004;-86
2021/11/24 07:37:39;;;;;;;3.10;2.13;;;7.30;65.50;;;;;;6244345;22;20341;-86
2021/11/24 07:40:07;;;;;;;5.80;2.92;;;7.40;65.70;;;;;;6245553;22;20039;-88
2021/11/24 07:42:33;;;;;;;2.42;2.20;;;7.50;64.70;;;;;;6244122;22;20027;-87
2021/11/24 07:44:59;;;;;;;2.88;2.40;;;7.50;62.90;;;;;;6242712;23;20115;-86
2021/11/24 07:47:25;;;;;;;8.02;2.42;;;7.60;63.80;;;;;;6243599;22;20420;-86
2021/11/24 07:49:51;;;;;;;4.65;2.92;;;7.60;62.00;;;;;;6244197;22;20000;-88
2021/11/24 07:52:16;;;;;;;4.50;2.78;;;7.70;62.40;;;;;;6244044;22;20004;-87
2021/11/24 07:54:43;;;;;;;2.70;2.50;;;7.90;61.30;;;;;;6243542;22;20011;-86
2021/11/24 07:57:08;;;;;;;4.88;3.33;;;8.00;61.60;;;;;;6241873;23;20135;-86
2021/11/24 07:59:37;;;;;;;2.67;2.47;;;8.00;60.90;;;;;;6243138;22;20062;-86
2021/11/24 08:02:04;;;;;;;2.65;2.20;;;8.20;59.80;;;;;;6242038;23;20095;-86
2021/11/24 08:04:30;;;;;;;3.08;2.58;;;8.20;61.10;;;;;;6244343;22;20012;-85
2021/11/24 08:07:03;;;;;;;5.40;2.63;;;8.20;60.10;;;;;;6241491;22;20468;-86
2021/11/24 08:09:30;;;;;;;2.53;2.20;;;8.30;59.20;;;;;;6267814;22;20039;-86
2021/11/24 08:11:58;;;;;;;5.10;2.50;;;8.40;58.70;;;;;;6244771;22;20004;-86
2021/11/24 08:14:24;;;;;;;19.98;2.70;;;8.40;58.70;;;;;;6245632;22;20007;-86
2021/11/24 08:16:50;;;;;;;6.30;2.50;;;8.50;58.40;;;;;;6245304;22;20012;-87
2021/11/24 08:19:15;;;;;;;4.88;2.70;;;8.60;58.60;;;;;;6244533;23;20062;-87
2021/11/24 08:21:41;;;;;;;3.60;2.20;;;8.60;58.20;;;;;;6216962;23;20005;-87
2021/11/24 08:24:07;;;;;;;3.97;2.25;;;8.70;58.30;;;;;;6218980;23;20441;-87
2021/11/24 08:26:33;;;;;;;1.83;1.73;;;8.80;58.60;;;;;;6216304;23;20005;-86
2021/11/24 08:28:59;;;;;;;4.45;2.17;;;8.90;57.70;;;;;;6217546;23;20324;-85
2021/11/24 08:31:25;;;;;;;3.90;2.30;;;9.00;58.00;;;;;;6243740;23;20008;-86
2021/11/24 08:33:51;;;;;;;2.45;2.10;;;9.00;57.90;;;;;;6216589;23;20404;-86
2021/11/24 08:36:16;;;;;;;5.13;2.08;;;9.10;56.30;;;;;;6242740;23;20147;-86
2021/11/24 08:38:43;;;;;;;4.88;1.70;;;9.20;57.00;;;;;;6243666;23;20446;-86
2021/11/24 08:41:11;;;;;;;1.90;1.70;;;9.20;56.80;;;;;;6244155;23;20446;-85
2021/11/24 08:43:38;;;;;;;6.22;2.17;;;9.40;56.60;;;;;;6243145;23;20470;-86
2021/11/24 08:46:04;;;;;;;3.90;2.22;;;9.40;56.80;;;;;;6243178;23;20436;-84
2021/11/24 08:48:30;;;;;;;2.80;2.17;;;9.40;57.90;;;;;;6243779;23;20004;-84
2021/11/24 08:50:56;;;;;;;3.67;2.05;;;9.50;57.20;;;;;;6243860;23;20007;-85
2021/11/24 08:53:23;;;;;;;2.28;2.08;;;9.50;57.70;;;;;;6243033;23;20600;-84
2021/11/24 08:55:49;;;;;;;8.82;1.90;;;9.50;56.10;;;;;;6243034;23;20086;-85
2021/11/24 08:58:15;;;;;;;3.40;2.08;;;9.60;56.90;;;;;;6216261;23;20015;-85
2021/11/24 09:00:41;;;;;;;4.35;1.85;;;9.60;56.90;;;;;;6243388;23;20002;-84
2021/11/24 09:03:09;;;;;;;3.30;2.70;;;9.60;57.60;;;;;;6245164;23;20008;-85
2021/11/24 09:05:35;;;;;;;2.53;2.17;;;9.60;56.80;;;;;;6243270;23;20008;-87
2021/11/24 09:08:00;;;;;;;3.38;2.28;;;9.70;56.80;;;;;;6243691;23;20541;-85
2021/11/24 09:10:27;;;;;;;8.98;2.67;;;9.70;57.30;;;;;;6216622;23;20044;-86
2021/11/24 09:12:54;;;;;;;15.50;2.70;;;9.80;57.70;;;;;;6244228;23;20442;-85
2021/11/24 09:15:20;;;;;;;3.50;2.20;;;9.90;58.40;;;;;;6243726;23;20375;-85
2021/11/24 09:17:46;;;;;;;3.88;2.38;;;9.90;56.10;;;;;;6215995;23;20000;-85
2021/11/24 09:20:12;;;;;;;18.20;2.67;;;10.00;56.60;;;;;;6243202;23;20036;-84
2021/11/24 09:22:42;;;;;;;12.55;2.85;;;10.00;56.80;;;;;;6242605;23;20007;-85
2021/11/24 09:25:12;;;;;;;5.53;2.13;;;10.00;57.30;;;;;;6215800;23;20138;-84
2021/11/24 09:27:55;;;;;;;11.40;2.97;;;10.10;56.50;;;;;;6215568;23;20044;-86
2021/11/24 09:30:21;;;;;;;2.88;2.47;;;10.10;56.90;;;;;;6214676;23;20051;-84
2021/11/24 09:32:47;;;;;;;4.57;2.60;;;10.20;56.80;;;;;;6242027;23;20483;-85
2021/11/24 09:35:13;;;;;;;3.33;2.28;;;10.20;56.40;;;;;;6214187;23;20347;-83
2021/11/24 09:37:39;;;;;;;3.47;2.40;;;10.30;56.10;;;;;;6215999;23;20062;-84
2021/11/24 09:40:07;;;;;;;4.07;2.70;;;10.30;57.20;;;;;;6215390;23;20008;-84
2021/11/24 09:42:36;;;;;;;2.70;2.30;;;10.40;56.30;;;;;;6242854;23;20004;-84
2021/11/24 09:45:04;;;;;;;4.78;2.58;;;10.50;55.90;;;;;;6242767;23;20012;-84
2021/11/24 09:47:33;;;;;;;2.80;2.10;;;10.50;56.10;;;;;;6214074;23;20082;-85
2021/11/24 09:50:00;;;;;;;4.45;2.25;;;10.60;56.40;;;;;;6241665;23;20435;-84
2021/11/24 09:52:27;;;;;;;4.57;3.28;;;10.60;55.50;;;;;;6215942;23;20031;-85
2021/11/24 09:54:53;;;;;;;3.22;2.60;;;10.70;56.40;;;;;;6242776;23;20008;-85
2021/11/24 09:57:23;;;;;;;3.90;2.85;;;10.80;56.40;;;;;;6214288;23;20065;-85
2021/11/24 09:59:49;;;;;;;2.78;2.00;;;10.80;56.80;;;;;;6241734;23;20013;-85
2021/11/24 10:02:18;;;;;;;2.72;2.35;;;10.80;56.20;;;;;;6241032;23;20004;-87
2021/11/24 10:04:45;;;;;;;3.78;2.40;;;10.90;56.20;;;;;;6215479;23;20027;-86
2021/11/24 10:07:13;;;;;;;3.25;2.58;;;11.00;56.30;;;;;;6216389;23;20000;-87
2021/11/24 10:09:40;;;;;;;7.90;2.60;;;11.10;55.90;;;;;;6245752;23;20050;-87
2021/11/24 10:12:07;;;;;;;2.67;2.45;;;11.10;56.70;;;;;;6216973;23;20344;-85
2021/11/24 10:14:33;;;;;;;3.40;2.53;;;11.10;57.00;;;;;;6218486;23;20344;-85
2021/11/24 10:17:14;;;;;;;2.47;2.28;;;11.10;56.50;;;;;;6244787;23;20077;-87
2021/11/24 10:19:58;;;;;;;3.15;2.75;;;11.10;56.60;;;;;;6217023;23;20054;-85
2021/11/24 10:22:23;;;;;;;3.05;2.35;;;11.10;56.80;;;;;;6243397;23;20281;-84
2021/11/24 10:25:04;;;;;;;2.63;2.35;;;11.20;57.10;;;;;;6215849;23;20099;-85
2021/11/24 10:27:44;;;;;;;6.03;3.20;;;11.30;57.10;;;;;;6215520;23;20000;-86
2021/11/24 10:30:20;;;;;;;3.80;3.03;;;11.30;57.20;;;;;;6242499;23;20000;-86
2021/11/24 10:32:46;;;;;;;3.10;2.75;;;11.30;57.40;;;;;;6243450;23;20000;-86
2021/11/24 10:35:13;;;;;;;8.13;2.83;;;11.30;57.50;;;;;;6244830;23;20058;-86
2021/11/24 10:37:39;;;;;;;4.07;2.90;;;11.40;57.10;;;;;;6240548;23;20010;-86
2021/11/24 10:40:07;;;;;;;3.20;2.58;;;11.40;57.40;;;;;;6242436;23;20438;-84
2021/11/24 10:42:36;;;;;;;3.80;2.75;;;11.40;57.70;;;;;;6240109;23;19997;-83
2021/11/24 10:45:13;;;;;;;4.35;3.10;;;11.50;57.50;;;;;;6237970;23;20095;-85
2021/11/24 10:48:08;;;;;;;3.28;2.38;;;11.50;57.10;;;;;;6241229;23;20019;-84
2021/11/24 10:50:37;;;;;;;4.13;2.83;;;11.60;57.00;;;;;;6221382;23;20075;-86
2021/11/24 10:53:03;;;;;;;2.85;2.50;;;11.60;56.70;;;;;;6245394;23;20008;-84
2021/11/24 10:55:31;;;;;;;4.00;2.67;;;11.60;57.30;;;;;;6245900;23;20494;-85
2021/11/24 10:58:05;;;;;;;3.70;3.10;;;11.70;57.40;;;;;;6242644;23;20007;-85
2021/11/24 11:00:38;;;;;;;4.75;3.17;;;11.80;57.50;;;;;;6246411;23;20000;-83
2021/11/24 11:03:05;;;;;;;;;;;11.90;57.90;;;;;;6250029;23;20004;-84
2021/11/24 11:05:30;;;;;;;6.13;2.88;;;11.90;57.70;;;;;;6218614;23;19911;-86
2021/11/24 11:07:58;;;;;;;4.80;3.13;;;12.00;57.40;;;;;;6246931;23;20453;-83
2021/11/24 11:10:30;;;;;;;4.78;2.63;;;12.00;57.40;;;;;;6219269;23;20051;-84
2021/11/24 11:13:07;;;;;;;3.97;3.17;;;12.10;57.20;;;;;;6218073;23;20454;-84
2021/11/24 11:15:40;;;;;;;3.17;2.78;;;12.00;57.40;;;;;;6244144;23;20012;-84
2021/11/24 11:18:25;;;;;;;2.95;2.58;;;12.00;57.40;;;;;;6219668;23;20335;-86
2021/11/24 11:21:02;;;;;;;2.88;2.58;;;12.00;57.70;;;;;;6219078;23;20004;-86
2021/11/24 11:23:31;;;;;;;5.25;2.70;;;12.10;57.10;;;;;;6245407;23;20000;-82
2021/11/24 11:26:04;;;;;;;6.25;2.92;;;12.10;58.20;;;;;;6218801;23;20012;-82
2021/11/24 11:28:37;;;;;;;11.35;5.95;;;12.20;57.20;;;;;;6244567;23;20004;-82
2021/11/24 11:31:07;;;;;;;12.77;6.55;;;12.20;57.10;;;;;;6244964;23;20083;-83
2021/11/24 11:33:36;;;;;;;6.25;4.10;;;12.30;58.00;;;;;;6247360;23;20000;-89
2021/11/24 11:36:11;;;;;;;5.45;4.00;;;12.30;56.90;;;;;;6217336;23;20004;-77
2021/11/24 11:38:40;;;;;;;12.77;6.55;;;12.40;57.30;;;;;;6243956;23;20431;-84
2021/11/24 11:41:06;;;;;;;5.38;2.92;;;12.50;57.20;;;;;;6218517;23;20546;-86
2021/11/24 11:43:33;;;;;;;10.05;2.65;;;12.50;56.50;;;;;;6244402;23;20037;-81
2021/11/24 11:46:19;;;;;;;4.72;2.75;;;12.50;56.70;;;;;;6242344;23;20540;-80
2021/11/24 11:48:47;;;;;;;4.90;2.53;;;12.60;56.80;;;;;;6242515;23;20004;-79
2021/11/24 11:51:14;;;;;;;5.88;2.75;;;12.70;57.10;;;;;;6242579;23;20008;-81
2021/11/24 11:53:45;;;;;;;9.30;3.22;;;12.70;56.20;;;;;;6241306;23;20012;-81
2021/11/24 11:56:17;;;;;;;4.32;2.25;;;12.70;56.60;;;;;;6241932;23;20015;-82
2021/11/24 11:58:53;;;;;;;5.05;2.90;;;12.80;56.20;;;;;;6241019;23;20394;-78
2021/11/24 12:01:36;;;;;;;3.55;2.60;;;12.90;56.80;;;;;;6241311;23;20007;-81
2021/11/24 12:04:08;;;;;;;6.32;2.67;;;12.90;56.10;;;;;;6216004;23;20008;-82
2021/11/24 12:06:35;;;;;;;2.53;2.33;;;12.90;56.10;;;;;;6241379;23;20008;-81
2021/11/24 12:09:17;;;;;;;11.45;3.08;;;13.10;56.00;;;;;;6215075;23;20083;-81
2021/11/24 12:12:10;;;;;;;3.65;2.47;;;13.70;56.10;;;;;;6241443;23;20463;-85
